sensor_id;sensor_type;location;lat;lon;timestamp;pressure;altitude;pressure_sealevel;temperature;humidity
3812;BME280;1921;49.368;11.068;2023-02-19T00:01:25;98012.03;;;9.95;94.11
3812;BME280;1921;49.368;11.068;2023-02-19T00:04:01;98007.13;;;9.92;94.75
3812;BME280;1921;49.368;11.068;2023-02-19T00:06:29;97996.38;;;9.79;95.19
3812;BME280;1921;49.368;11.068;2023-02-19T00:08:57;97983.81;;;9.50;96.93
3812;BME280;1921;49.368;11.068;2023-02-19T00:11:26;98011.03;;;9.64;97.71
3812;BME280;1921;49.368;11.068;2023-02-19T00:13:54;98013.16;;;9.77;97.51
3812;BME280;1921;49.368;11.068;2023-02-19T00:16:38;97990.84;;;9.66;97.67
3812;BME280;1921;49.368;11.068;2023-02-19T00:19:09;98024.88;;;9.73;98.29
3812;BME280;1921;49.368;11.068;2023-02-19T00:21:36;98027.66;;;9.95;97.41
3812;BME280;1921;49.368;11.068;2023-02-19T00:24:04;97978.66;;;9.58;97.18
3812;BME280;1921;49.368;11.068;2023-02-19T00:26:31;97994.94;;;9.77;96.77
3812;BME280;1921;49.368;11.068;2023-02-19T00:28:59;98048.50;;;10.04;96.95
3812;BME280;1921;49.368;11.068;2023-02-19T00:31:31;97977.50;;;9.61;97.20
3812;BME280;1921;49.368;11.068;2023-02-19T00:34:00;98008.59;;;9.79;96.66
3812;BME280;1921;49.368;11.068;2023-02-19T00:36:27;97971.97;;;9.64;96.41
3812;BME280;1921;49.368;11.068;2023-02-19T00:38:53;98031.91;;;9.88;96.14
3812;BME280;1921;49.368;11.068;2023-02-19T00:41:21;98033.03;;;9.94;95.96
3812;BME280;1921;49.368;11.068;2023-02-19T00:43:59;98033.34;;;9.99;95.71
3812;BME280;1921;49.368;11.068;2023-02-19T00:46:32;98014.63;;;9.87;95.73
3812;BME280;1921;49.368;11.068;2023-02-19T00:48:59;97964.66;;;9.59;95.43
3812;BME280;1921;49.368;11.068;2023-02-19T00:51:29;97972.97;;;9.63;96.33
3812;BME280;1921;49.368;11.068;2023-02-19T00:53:56;97953.72;;;9.56;96.93
3812;BME280;1921;49.368;11.068;2023-02-19T00:56:22;97986.16;;;9.69;97.18
3812;BME280;1921;49.368;11.068;2023-02-19T00:58:48;97997.34;;;9.62;98.83
3812;BME280;1921;49.368;11.068;2023-02-19T01:01:15;98010.41;;;9.78;99.01
3812;BME280;1921;49.368;11.068;2023-02-19T01:03:40;97991.97;;;9.55;99.90
3812;BME280;1921;49.368;11.068;2023-02-19T01:06:08;98031.06;;;9.71;100.00
3812;BME280;1921;49.368;11.068;2023-02-19T01:08:36;98009.72;;;9.60;100.00
3812;BME280;1921;49.368;11.068;2023-02-19T01:11:03;97883.75;;;8.96;100.00
3812;BME280;1921;49.368;11.068;2023-02-19T01:13:30;97908.16;;;9.11;100.00
3812;BME280;1921;49.368;11.068;2023-02-19T01:16:11;97963.97;;;9.41;100.00
3812;BME280;1921;49.368;11.068;2023-02-19T01:18:38;97940.84;;;9.13;100.00
3812;BME280;1921;49.368;11.068;2023-02-19T01:21:17;97988.22;;;9.33;100.00
3812;BME280;1921;49.368;11.068;2023-02-19T01:23:44;97945.03;;;8.98;100.00
3812;BME280;1921;49.368;11.068;2023-02-19T01:26:20;97985.91;;;9.22;100.00
3812;BME280;1921;49.368;11.068;2023-02-19T01:28:46;97977.97;;;9.32;100.00
3812;BME280;1921;49.368;11.068;2023-02-19T01:31:21;97951.44;;;9.20;100.00
3812;BME280;1921;49.368;11.068;2023-02-19T01:33:54;97925.66;;;8.93;100.00
3812;BME280;1921;49.368;11.068;2023-02-19T01:36:22;97982.50;;;9.22;100.00
3812;BME280;1921;49.368;11.068;2023-02-19T01:38:48;97946.34;;;9.02;100.00
3812;BME280;1921;49.368;11.068;2023-02-19T01:41:22;97896.88;;;8.78;100.00
3812;BME280;1921;49.368;11.068;2023-02-19T01:44:02;97870.69;;;8.79;100.00
3812;BME280;1921;49.368;11.068;2023-02-19T01:46:34;97906.53;;;9.10;100.00
3812;BME280;1921;49.368;11.068;2023-02-19T01:49:22;97942.81;;;9.36;100.00
3812;BME280;1921;49.368;11.068;2023-02-19T01:52:03;97905.03;;;8.99;100.00
3812;BME280;1921;49.368;11.068;2023-02-19T01:54:35;97885.19;;;8.90;100.00
3812;BME280;1921;49.368;11.068;2023-02-19T01:57:09;97904.72;;;9.02;100.00
3812;BME280;1921;49.368;11.068;2023-02-19T01:59:36;97871.72;;;8.95;100.00
3812;BME280;1921;49.368;11.068;2023-02-19T02:02:03;97851.22;;;8.83;100.00
3812;BME280;1921;49.368;11.068;2023-02-19T02:04:30;97876.59;;;8.89;100.00
3812;BME280;1921;49.368;11.068;2023-02-19T02:06:59;97931.78;;;9.34;100.00
3812;BME280;1921;49.368;11.068;2023-02-19T02:09:28;97883.91;;;9.02;100.00
3812;BME280;1921;49.368;11.068;2023-02-19T02:12:13;97900.03;;;9.22;100.00
3812;BME280;1921;49.368;11.068;2023-02-19T02:14:46;97923.97;;;9.34;100.00
3812;BME280;1921;49.368;11.068;2023-02-19T02:17:23;97955.53;;;9.47;100.00
3812;BME280;1921;49.368;11.068;2023-02-19T02:22:41;97953.09;;;9.62;100.00
3812;BME280;1921;49.368;11.068;2023-02-19T02:28:34;97888.66;;;9.23;100.00
3812;BME280;1921;49.368;11.068;2023-02-19T02:31:15;97868.66;;;9.15;100.00
3812;BME280;1921;49.368;11.068;2023-02-19T02:34:15;97931.78;;;9.66;100.00
3812;BME280;1921;49.368;11.068;2023-02-19T02:36:46;97863.59;;;9.22;100.00
3812;BME280;1921;49.368;11.068;2023-02-19T02:39:18;97834.00;;;9.15;100.00
3812;BME280;1921;49.368;11.068;2023-02-19T02:41:54;97861.97;;;9.37;100.00
3812;BME280;1921;49.368;11.068;2023-02-19T02:44:40;97896.63;;;9.62;99.71
3812;BME280;1921;49.368;11.068;2023-02-19T02:47:07;97890.44;;;9.55;100.00
3812;BME280;1921;49.368;11.068;2023-02-19T02:49:55;97877.94;;;9.51;100.00
3812;BME280;1921;49.368;11.068;2023-02-19T02:52:33;97917.63;;;9.69;100.00
3812;BME280;1921;49.368;11.068;2023-02-19T02:55:20;97847.03;;;9.07;100.00
3812;BME280;1921;49.368;11.068;2023-02-19T02:57:46;97870.09;;;9.18;100.00
3812;BME280;1921;49.368;11.068;2023-02-19T03:00:13;97847.00;;;8.99;100.00
3812;BME280;1921;49.368;11.068;2023-02-19T03:02:41;97883.78;;;9.28;100.00
3812;BME280;1921;49.368;11.068;2023-02-19T03:05:22;97818.06;;;9.02;100.00
3812;BME280;1921;49.368;11.068;2023-02-19T03:08:21;97905.56;;;9.68;100.00
3812;BME280;1921;49.368;11.068;2023-02-19T03:10:58;97863.94;;;9.35;100.00
3812;BME280;1921;49.368;11.068;2023-02-19T03:13:58;97818.38;;;9.23;99.28
3812;BME280;1921;49.368;11.068;2023-02-19T03:16:45;97886.38;;;9.61;100.00
3812;BME280;1921;49.368;11.068;2023-02-19T03:19:37;97893.69;;;9.65;99.81
3812;BME280;1921;49.368;11.068;2023-02-19T03:22:32;97848.97;;;9.46;100.00
3812;BME280;1921;49.368;11.068;2023-02-19T03:25:46;97861.16;;;9.29;100.00
3812;BME280;1921;49.368;11.068;2023-02-19T03:28:14;97816.13;;;9.20;98.84
3812;BME280;1921;49.368;11.068;2023-02-19T03:30:49;97864.91;;;9.51;98.04
3812;BME280;1921;49.368;11.068;2023-02-19T03:33:26;97880.69;;;9.65;98.79
3812;BME280;1921;49.368;11.068;2023-02-19T03:35:59;97809.94;;;9.21;98.00
3812;BME280;1921;49.368;11.068;2023-02-19T03:38:41;97884.75;;;9.60;98.21
3812;BME280;1921;49.368;11.068;2023-02-19T03:41:36;97852.53;;;9.36;98.27
3812;BME280;1921;49.368;11.068;2023-02-19T03:47:28;97834.66;;;9.41;96.69
3812;BME280;1921;49.368;11.068;2023-02-19T03:50:19;97882.44;;;9.81;96.44
3812;BME280;1921;49.368;11.068;2023-02-19T03:53:00;97884.38;;;9.87;95.92
3812;BME280;1921;49.368;11.068;2023-02-19T03:58:56;97798.88;;;9.19;95.70
3812;BME280;1921;49.368;11.068;2023-02-19T04:04:15;97789.13;;;9.29;95.50
3812;BME280;1921;49.368;11.068;2023-02-19T04:06:45;97804.56;;;9.39;94.64
3812;BME280;1921;49.368;11.068;2023-02-19T04:09:13;97865.84;;;9.74;95.50
3812;BME280;1921;49.368;11.068;2023-02-19T04:11:40;97881.47;;;9.74;95.24
3812;BME280;1921;49.368;11.068;2023-02-19T04:14:35;97847.66;;;9.58;95.16
3812;BME280;1921;49.368;11.068;2023-02-19T04:17:11;97894.78;;;9.87;94.66
3812;BME280;1921;49.368;11.068;2023-02-19T04:19:39;97854.13;;;9.62;93.85
3812;BME280;1921;49.368;11.068;2023-02-19T04:22:07;97863.59;;;9.63;94.93
3812;BME280;1921;49.368;11.068;2023-02-19T04:24:44;97842.28;;;9.35;94.94
3812;BME280;1921;49.368;11.068;2023-02-19T04:27:12;97858.06;;;9.58;94.91
3812;BME280;1921;49.368;11.068;2023-02-19T04:29:38;97843.09;;;9.35;95.20
3812;BME280;1921;49.368;11.068;2023-02-19T04:32:04;97873.03;;;9.48;95.60
3812;BME280;1921;49.368;11.068;2023-02-19T04:34:30;97853.03;;;9.40;95.52
3812;BME280;1921;49.368;11.068;2023-02-19T04:36:55;97867.84;;;9.39;95.05
3812;BME280;1921;49.368;11.068;2023-02-19T04:39:21;97870.44;;;9.48;95.37
3812;BME280;1921;49.368;11.068;2023-02-19T04:41:47;97906.69;;;9.74;95.54
3812;BME280;1921;49.368;11.068;2023-02-19T04:44:12;97899.88;;;9.64;95.46
3812;BME280;1921;49.368;11.068;2023-02-19T04:46:40;97779.72;;;8.96;95.55
3812;BME280;1921;49.368;11.068;2023-02-19T04:49:06;97852.06;;;9.41;95.83
3812;BME280;1921;49.368;11.068;2023-02-19T04:51:34;97914.19;;;9.68;96.08
3812;BME280;1921;49.368;11.068;2023-02-19T04:53:59;97903.31;;;9.57;97.05
3812;BME280;1921;49.368;11.068;2023-02-19T04:56:25;97865.22;;;9.23;97.02
3812;BME280;1921;49.368;11.068;2023-02-19T04:58:51;97878.91;;;9.41;95.94
3812;BME280;1921;49.368;11.068;2023-02-19T05:01:17;97858.25;;;9.32;95.63
3812;BME280;1921;49.368;11.068;2023-02-19T05:03:43;97853.22;;;9.14;96.57
3812;BME280;1921;49.368;11.068;2023-02-19T05:06:11;97846.81;;;9.00;96.63
3812;BME280;1921;49.368;11.068;2023-02-19T05:08:38;97880.84;;;9.07;97.38
3812;BME280;1921;49.368;11.068;2023-02-19T05:11:06;97887.66;;;9.16;97.47
3812;BME280;1921;49.368;11.068;2023-02-19T05:13:33;97895.34;;;9.34;96.48
3812;BME280;1921;49.368;11.068;2023-02-19T05:16:06;97925.59;;;9.67;96.53
3812;BME280;1921;49.368;11.068;2023-02-19T05:18:33;97883.94;;;9.35;95.34
3812;BME280;1921;49.368;11.068;2023-02-19T05:21:02;97897.28;;;9.32;95.87
3812;BME280;1921;49.368;11.068;2023-02-19T05:23:27;97814.16;;;8.98;94.85
3812;BME280;1921;49.368;11.068;2023-02-19T05:25:53;97854.66;;;9.33;94.87
3812;BME280;1921;49.368;11.068;2023-02-19T05:28:20;97868.47;;;9.41;94.16
3812;BME280;1921;49.368;11.068;2023-02-19T05:30:51;97885.41;;;9.54;94.67
3812;BME280;1921;49.368;11.068;2023-02-19T05:33:20;97844.09;;;9.26;93.90
3812;BME280;1921;49.368;11.068;2023-02-19T05:35:52;97826.84;;;9.17;93.88
3812;BME280;1921;49.368;11.068;2023-02-19T05:38:19;97863.44;;;9.40;93.82
3812;BME280;1921;49.368;11.068;2023-02-19T05:40:45;97860.50;;;9.10;95.16
3812;BME280;1921;49.368;11.068;2023-02-19T05:43:12;97892.25;;;9.47;94.80
3812;BME280;1921;49.368;11.068;2023-02-19T05:45:39;97822.78;;;9.06;93.70
3812;BME280;1921;49.368;11.068;2023-02-19T05:48:06;97751.56;;;8.67;92.90
3812;BME280;1921;49.368;11.068;2023-02-19T05:50:34;97875.00;;;9.29;93.61
3812;BME280;1921;49.368;11.068;2023-02-19T05:53:01;97845.53;;;9.12;93.59
3812;BME280;1921;49.368;11.068;2023-02-19T05:55:28;97867.69;;;9.33;93.13
3812;BME280;1921;49.368;11.068;2023-02-19T05:57:55;97856.63;;;9.14;92.41
3812;BME280;1921;49.368;11.068;2023-02-19T06:00:21;97873.69;;;9.25;93.23
3812;BME280;1921;49.368;11.068;2023-02-19T06:02:47;97849.44;;;9.00;93.31
3812;BME280;1921;49.368;11.068;2023-02-19T06:05:13;97887.03;;;9.30;93.83
3812;BME280;1921;49.368;11.068;2023-02-19T06:07:39;97874.03;;;9.14;94.27
3812;BME280;1921;49.368;11.068;2023-02-19T06:10:06;97863.75;;;9.04;93.10
3812;BME280;1921;49.368;11.068;2023-02-19T06:12:33;97862.63;;;9.07;93.92
3812;BME280;1921;49.368;11.068;2023-02-19T06:14:58;97901.31;;;9.18;93.80
3812;BME280;1921;49.368;11.068;2023-02-19T06:17:24;97884.25;;;9.24;93.80
3812;BME280;1921;49.368;11.068;2023-02-19T06:19:50;97892.88;;;9.16;94.19
3812;BME280;1921;49.368;11.068;2023-02-19T06:22:16;97922.16;;;9.26;94.28
3812;BME280;1921;49.368;11.068;2023-02-19T06:24:41;97899.19;;;9.05;94.92
3812;BME280;1921;49.368;11.068;2023-02-19T06:27:08;97927.50;;;9.16;95.63
3812;BME280;1921;49.368;11.068;2023-02-19T06:29:34;97906.81;;;8.90;96.60
3812;BME280;1921;49.368;11.068;2023-02-19T06:32:04;97877.69;;;8.79;96.16
3812;BME280;1921;49.368;11.068;2023-02-19T06:34:31;97945.91;;;9.31;95.02
3812;BME280;1921;49.368;11.068;2023-02-19T06:36:57;97893.34;;;9.03;93.78
3812;BME280;1921;49.368;11.068;2023-02-19T06:39:24;97898.22;;;8.98;93.93
3812;BME280;1921;49.368;11.068;2023-02-19T06:41:49;97900.69;;;9.08;93.36
3812;BME280;1921;49.368;11.068;2023-02-19T06:44:15;97905.25;;;9.14;92.68
3812;BME280;1921;49.368;11.068;2023-02-19T06:46:41;97914.66;;;9.15;93.30
3812;BME280;1921;49.368;11.068;2023-02-19T06:49:07;97891.22;;;8.99;92.78
3812;BME280;1921;49.368;11.068;2023-02-19T06:51:33;97905.53;;;8.95;93.26
3812;BME280;1921;49.368;11.068;2023-02-19T06:54:00;97925.06;;;9.23;92.42
3812;BME280;1921;49.368;11.068;2023-02-19T06:56:41;97990.53;;;9.61;91.64
3812;BME280;1921;49.368;11.068;2023-02-19T06:59:11;97963.19;;;9.57;90.72
3812;BME280;1921;49.368;11.068;2023-02-19T07:01:39;97951.78;;;9.33;90.71
3812;BME280;1921;49.368;11.068;2023-02-19T07:04:06;97935.66;;;9.22;90.59
3812;BME280;1921;49.368;11.068;2023-02-19T07:06:32;97990.69;;;9.59;91.09
3812;BME280;1921;49.368;11.068;2023-02-19T07:08:59;97943.50;;;9.46;89.54
3812;BME280;1921;49.368;11.068;2023-02-19T07:11:28;97978.16;;;9.71;89.14
3812;BME280;1921;49.368;11.068;2023-02-19T07:13:59;97979.28;;;9.68;89.46
3812;BME280;1921;49.368;11.068;2023-02-19T07:16:26;97994.13;;;9.76;88.46
3812;BME280;1921;49.368;11.068;2023-02-19T07:18:52;97957.34;;;9.71;88.25
3812;BME280;1921;49.368;11.068;2023-02-19T07:21:20;97935.69;;;9.38;88.90
3812;BME280;1921;49.368;11.068;2023-02-19T07:23:46;97947.88;;;9.62;88.37
3812;BME280;1921;49.368;11.068;2023-02-19T07:26:17;97978.16;;;9.79;87.44
3812;BME280;1921;49.368;11.068;2023-02-19T07:28:45;98007.31;;;9.83;87.67
3812;BME280;1921;49.368;11.068;2023-02-19T07:31:12;97999.16;;;9.69;88.33
3812;BME280;1921;49.368;11.068;2023-02-19T07:33:38;98018.72;;;9.90;88.09
3812;BME280;1921;49.368;11.068;2023-02-19T07:36:06;97985.66;;;9.58;88.40
3812;BME280;1921;49.368;11.068;2023-02-19T07:38:32;98016.41;;;9.87;87.66
3812;BME280;1921;49.368;11.068;2023-02-19T07:41:01;98003.91;;;9.82;87.85
3812;BME280;1921;49.368;11.068;2023-02-19T07:43:30;98001.28;;;9.90;86.88
3812;BME280;1921;49.368;11.068;2023-02-19T07:45:56;98013.16;;;9.93;87.31
3812;BME280;1921;49.368;11.068;2023-02-19T07:48:22;97983.22;;;9.73;86.97
3812;BME280;1921;49.368;11.068;2023-02-19T07:50:56;97980.44;;;9.82;87.29
3812;BME280;1921;49.368;11.068;2023-02-19T07:53:24;98026.03;;;10.03;87.07
3812;BME280;1921;49.368;11.068;2023-02-19T07:55:50;98033.34;;;10.15;86.68
3812;BME280;1921;49.368;11.068;2023-02-19T07:58:16;98012.34;;;10.09;86.33
3812;BME280;1921;49.368;11.068;2023-02-19T08:00:42;98016.09;;;10.06;86.69
3812;BME280;1921;49.368;11.068;2023-02-19T08:03:08;98029.59;;;10.18;86.29
3812;BME280;1921;49.368;11.068;2023-02-19T08:05:40;98011.53;;;10.16;86.35
3812;BME280;1921;49.368;11.068;2023-02-19T08:08:08;98016.75;;;10.33;85.57
3812;BME280;1921;49.368;11.068;2023-02-19T08:10:35;98033.22;;;10.33;86.57
3812;BME280;1921;49.368;11.068;2023-02-19T08:13:19;98014.16;;;10.33;84.98
3812;BME280;1921;49.368;11.068;2023-02-19T08:16:09;98044.13;;;10.45;84.59
3812;BME280;1921;49.368;11.068;2023-02-19T08:18:35;98012.03;;;10.20;84.78
3812;BME280;1921;49.368;11.068;2023-02-19T08:21:01;98008.75;;;10.18;86.21
3812;BME280;1921;49.368;11.068;2023-02-19T08:23:27;97999.50;;;10.23;85.46
3812;BME280;1921;49.368;11.068;2023-02-19T08:25:57;97983.19;;;10.13;85.23
3812;BME280;1921;49.368;11.068;2023-02-19T08:28:23;98042.47;;;10.52;84.71
3812;BME280;1921;49.368;11.068;2023-02-19T08:30:49;97995.41;;;10.21;85.23
3812;BME280;1921;49.368;11.068;2023-02-19T08:33:18;97981.22;;;10.15;84.27
3812;BME280;1921;49.368;11.068;2023-02-19T08:35:45;97966.25;;;10.09;82.52
3812;BME280;1921;49.368;11.068;2023-02-19T08:38:12;98033.16;;;10.58;83.79
3812;BME280;1921;49.368;11.068;2023-02-19T08:40:39;98011.81;;;10.54;81.85
3812;BME280;1921;49.368;11.068;2023-02-19T08:43:11;98013.47;;;10.47;81.93
3812;BME280;1921;49.368;11.068;2023-02-19T08:45:39;98027.97;;;10.41;82.44
3812;BME280;1921;49.368;11.068;2023-02-19T08:48:06;98001.28;;;10.23;83.22
3812;BME280;1921;49.368;11.068;2023-02-19T08:50:33;98047.19;;;10.48;82.01
3812;BME280;1921;49.368;11.068;2023-02-19T08:53:02;98077.81;;;10.71;81.43
3812;BME280;1921;49.368;11.068;2023-02-19T08:55:28;98044.59;;;10.57;82.49
3812;BME280;1921;49.368;11.068;2023-02-19T08:57:54;98064.72;;;10.79;81.85
3812;BME280;1921;49.368;11.068;2023-02-19T09:00:20;98031.16;;;10.68;80.33
3812;BME280;1921;49.368;11.068;2023-02-19T09:02:49;98055.91;;;10.80;81.46
3812;BME280;1921;49.368;11.068;2023-02-19T09:05:16;98065.16;;;10.99;80.86
3812;BME280;1921;49.368;11.068;2023-02-19T09:07:42;98071.03;;;11.01;79.87
3812;BME280;1921;49.368;11.068;2023-02-19T09:10:11;98074.22;;;10.72;80.17
3812;BME280;1921;49.368;11.068;2023-02-19T09:12:37;98126.50;;;10.95;80.97
3812;BME280;1921;49.368;11.068;2023-02-19T09:15:05;98095.19;;;10.87;80.96
3812;BME280;1921;49.368;11.068;2023-02-19T09:17:30;98115.34;;;11.17;80.67
3812;BME280;1921;49.368;11.068;2023-02-19T09:19:56;98065.69;;;10.94;79.11
3812;BME280;1921;49.368;11.068;2023-02-19T09:22:22;98111.25;;;11.23;78.88
3812;BME280;1921;49.368;11.068;2023-02-19T09:24:47;98101.28;;;11.26;77.72
3812;BME280;1921;49.368;11.068;2023-02-19T09:27:18;98134.06;;;11.37;78.12
3812;BME280;1921;49.368;11.068;2023-02-19T09:29:45;98136.44;;;11.47;78.05
3812;BME280;1921;49.368;11.068;2023-02-19T09:32:12;98092.03;;;11.16;78.09
3812;BME280;1921;49.368;11.068;2023-02-19T09:34:38;98099.25;;;11.05;77.92
3812;BME280;1921;49.368;11.068;2023-02-19T09:37:05;98130.84;;;11.11;78.27
3812;BME280;1921;49.368;11.068;2023-02-19T09:39:31;98105.47;;;10.96;79.52
3812;BME280;1921;49.368;11.068;2023-02-19T09:42:17;98121.50;;;10.69;80.08
3812;BME280;1921;49.368;11.068;2023-02-19T09:44:48;98097.22;;;10.68;79.95
3812;BME280;1921;49.368;11.068;2023-02-19T09:47:21;98126.97;;;11.07;78.51
3812;BME280;1921;49.368;11.068;2023-02-19T09:49:54;98119.59;;;11.18;78.20
3812;BME280;1921;49.368;11.068;2023-02-19T09:52:57;98156.03;;;11.51;77.25
3812;BME280;1921;49.368;11.068;2023-02-19T09:55:35;98101.47;;;11.17;77.12
3812;BME280;1921;49.368;11.068;2023-02-19T09:58:29;98104.41;;;11.22;76.39
3812;BME280;1921;49.368;11.068;2023-02-19T10:01:00;98154.69;;;11.63;76.72
3812;BME280;1921;49.368;11.068;2023-02-19T10:03:36;98094.22;;;11.35;77.13
3812;BME280;1921;49.368;11.068;2023-02-19T10:06:12;98135.91;;;11.20;78.26
3812;BME280;1921;49.368;11.068;2023-02-19T10:08:39;98156.72;;;11.45;77.46
3812;BME280;1921;49.368;11.068;2023-02-19T10:11:05;98091.72;;;11.11;77.77
3812;BME280;1921;49.368;11.068;2023-02-19T10:13:36;98135.31;;;11.49;78.03
3812;BME280;1921;49.368;11.068;2023-02-19T10:16:10;98130.00;;;11.26;76.92
3812;BME280;1921;49.368;11.068;2023-02-19T10:18:42;98008.44;;;10.29;78.71
3812;BME280;1921;49.368;11.068;2023-02-19T10:21:20;98110.16;;;11.09;77.68
3812;BME280;1921;49.368;11.068;2023-02-19T10:24:00;98107.00;;;11.22;77.91
3812;BME280;1921;49.368;11.068;2023-02-19T10:26:30;98057.53;;;10.89;75.84
3812;BME280;1921;49.368;11.068;2023-02-19T10:29:00;98109.31;;;11.17;76.89
3812;BME280;1921;49.368;11.068;2023-02-19T10:31:26;98163.88;;;11.43;76.79
3812;BME280;1921;49.368;11.068;2023-02-19T10:33:55;98170.91;;;11.42;76.23
3812;BME280;1921;49.368;11.068;2023-02-19T10:38:57;98183.81;;;11.36;76.63
3812;BME280;1921;49.368;11.068;2023-02-19T10:41:25;98123.06;;;11.02;76.94
3812;BME280;1921;49.368;11.068;2023-02-19T10:44:24;98174.69;;;11.40;76.26
3812;BME280;1921;49.368;11.068;2023-02-19T10:46:54;98183.53;;;11.22;78.30
3812;BME280;1921;49.368;11.068;2023-02-19T10:49:37;98115.91;;;10.96;78.54
3812;BME280;1921;49.368;11.068;2023-02-19T10:52:20;98182.69;;;11.30;78.48
3812;BME280;1921;49.368;11.068;2023-02-19T10:54:57;98160.25;;;11.13;77.42
3812;BME280;1921;49.368;11.068;2023-02-19T10:57:37;98165.94;;;11.16;76.93
3812;BME280;1921;49.368;11.068;2023-02-19T11:02:42;98091.34;;;10.66;76.63
3812;BME280;1921;49.368;11.068;2023-02-19T11:10:33;98175.91;;;11.04;76.40
3812;BME280;1921;49.368;11.068;2023-02-19T11:13:02;98202.31;;;11.26;76.51
3812;BME280;1921;49.368;11.068;2023-02-19T11:15:34;98180.31;;;11.04;77.73
3812;BME280;1921;49.368;11.068;2023-02-19T11:18:24;98194.81;;;11.15;77.30
3812;BME280;1921;49.368;11.068;2023-02-19T11:20:54;98165.81;;;11.01;76.83
3812;BME280;1921;49.368;11.068;2023-02-19T11:23:33;98203.13;;;11.26;76.20
3812;BME280;1921;49.368;11.068;2023-02-19T11:26:14;98140.22;;;10.89;77.68
3812;BME280;1921;49.368;11.068;2023-02-19T11:28:42;98214.69;;;11.32;79.34
3812;BME280;1921;49.368;11.068;2023-02-19T11:33:59;98153.28;;;10.32;89.01
3812;BME280;1921;49.368;11.068;2023-02-19T11:36:36;98174.84;;;9.99;91.29
3812;BME280;1921;49.368;11.068;2023-02-19T11:39:19;98226.50;;;10.04;93.38
3812;BME280;1921;49.368;11.068;2023-02-19T11:42:26;98223.72;;;10.06;94.26
3812;BME280;1921;49.368;11.068;2023-02-19T11:48:32;98202.19;;;9.87;97.31
3812;BME280;1921;49.368;11.068;2023-02-19T11:51:34;98206.19;;;9.74;96.81
3812;BME280;1921;49.368;11.068;2023-02-19T11:54:15;98196.78;;;9.81;96.15
3812;BME280;1921;49.368;11.068;2023-02-19T11:56:43;98175.13;;;9.80;96.06
3812;BME280;1921;49.368;11.068;2023-02-19T12:02:34;98241.78;;;10.74;92.27
3812;BME280;1921;49.368;11.068;2023-02-19T12:05:16;98232.03;;;11.00;88.30
3812;BME280;1921;49.368;11.068;2023-02-19T12:07:57;98249.31;;;10.85;88.57
3812;BME280;1921;49.368;11.068;2023-02-19T12:22:35;98248.59;;;11.48;81.23
3812;BME280;1921;49.368;11.068;2023-02-19T12:25:21;98256.22;;;11.66;85.42
3812;BME280;1921;49.368;11.068;2023-02-19T12:28:16;98207.50;;;11.34;84.13
3812;BME280;1921;49.368;11.068;2023-02-19T12:40:10;98227.84;;;12.02;84.50
3812;BME280;1921;49.368;11.068;2023-02-19T12:45:46;98225.75;;;12.29;80.24
3812;BME280;1921;49.368;11.068;2023-02-19T12:49:11;98202.06;;;12.30;77.75
3812;BME280;1921;49.368;11.068;2023-02-19T12:51:44;98189.44;;;12.34;74.75
3812;BME280;1921;49.368;11.068;2023-02-19T12:54:25;98220.34;;;12.53;75.21
3812;BME280;1921;49.368;11.068;2023-02-19T12:57:19;98188.66;;;12.48;73.17
3812;BME280;1921;49.368;11.068;2023-02-19T13:00:02;98197.47;;;12.55;72.73
3812;BME280;1921;49.368;11.068;2023-02-19T13:02:50;98209.38;;;12.81;70.61
3812;BME280;1921;49.368;11.068;2023-02-19T13:05:41;98213.19;;;12.93;72.65
3812;BME280;1921;49.368;11.068;2023-02-19T13:08:54;98222.84;;;12.92;69.53
3812;BME280;1921;49.368;11.068;2023-02-19T13:11:36;98178.16;;;12.33;68.46
3812;BME280;1921;49.368;11.068;2023-02-19T13:14:30;98225.81;;;12.66;69.88
3812;BME280;1921;49.368;11.068;2023-02-19T13:17:19;98232.81;;;12.51;70.31
3812;BME280;1921;49.368;11.068;2023-02-19T13:19:52;98173.13;;;12.01;71.49
3812;BME280;1921;49.368;11.068;2023-02-19T13:23:19;98237.91;;;12.45;71.22
3812;BME280;1921;49.368;11.068;2023-02-19T13:26:29;98229.06;;;12.46;71.76
3812;BME280;1921;49.368;11.068;2023-02-19T13:32:50;98234.25;;;12.00;72.20
3812;BME280;1921;49.368;11.068;2023-02-19T13:38:21;98174.63;;;10.60;86.85
3812;BME280;1921;49.368;11.068;2023-02-19T13:40:56;98208.72;;;10.58;90.08
3812;BME280;1921;49.368;11.068;2023-02-19T13:43:35;98229.44;;;10.76;90.93
3812;BME280;1921;49.368;11.068;2023-02-19T13:46:08;98178.88;;;10.61;88.58
3812;BME280;1921;49.368;11.068;2023-02-19T13:48:37;98181.66;;;10.59;88.46
3812;BME280;1921;49.368;11.068;2023-02-19T14:09:43;98264.00;;;10.78;81.92
3812;BME280;1921;49.368;11.068;2023-02-19T14:17:40;98199.09;;;10.50;82.15
3812;BME280;1921;49.368;11.068;2023-02-19T14:30:53;98313.50;;;10.62;85.95
3812;BME280;1921;49.368;11.068;2023-02-19T14:36:18;98265.91;;;10.01;86.28
3812;BME280;1921;49.368;11.068;2023-02-19T14:38:55;98298.78;;;10.28;85.68
3812;BME280;1921;49.368;11.068;2023-02-19T14:41:22;98295.22;;;10.03;85.57
3812;BME280;1921;49.368;11.068;2023-02-19T14:43:52;98246.22;;;10.07;85.28
3812;BME280;1921;49.368;11.068;2023-02-19T14:48:49;98305.72;;;10.70;84.32
3812;BME280;1921;49.368;11.068;2023-02-19T14:53:56;98255.81;;;10.73;80.46
3812;BME280;1921;49.368;11.068;2023-02-19T14:56:29;98277.22;;;11.01;79.12
3812;BME280;1921;49.368;11.068;2023-02-19T14:59:25;98340.34;;;11.45;77.57
3812;BME280;1921;49.368;11.068;2023-02-19T15:02:02;98317.34;;;11.08;79.18
3812;BME280;1921;49.368;11.068;2023-02-19T15:04:36;98299.72;;;11.18;81.52
3812;BME280;1921;49.368;11.068;2023-02-19T15:07:06;98287.44;;;11.51;77.68
3812;BME280;1921;49.368;11.068;2023-02-19T15:09:38;98338.28;;;12.04;76.51
3812;BME280;1921;49.368;11.068;2023-02-19T15:12:06;98274.78;;;11.96;74.94
3812;BME280;1921;49.368;11.068;2023-02-19T15:14:32;98320.50;;;12.70;72.96
3812;BME280;1921;49.368;11.068;2023-02-19T15:17:04;98288.25;;;12.47;70.35
3812;BME280;1921;49.368;11.068;2023-02-19T15:19:33;98184.63;;;11.44;71.25
3812;BME280;1921;49.368;11.068;2023-02-19T15:22:01;98225.72;;;11.58;75.08
3812;BME280;1921;49.368;11.068;2023-02-19T15:24:27;98263.22;;;11.82;75.82
3812;BME280;1921;49.368;11.068;2023-02-19T15:26:54;98261.25;;;11.76;73.09
3812;BME280;1921;49.368;11.068;2023-02-19T15:29:26;98260.69;;;12.05;72.77
3812;BME280;1921;49.368;11.068;2023-02-19T15:31:56;98276.59;;;12.26;72.73
3812;BME280;1921;49.368;11.068;2023-02-19T15:34:27;98270.28;;;12.12;73.10